Time;durP1;ratioP1;P1;durP2;ratioP2;P2;SDS_P1;SDS_P2;PMS_P1;PMS_P2;Temp;Humidity;BMP_temperature;BMP_pressure;BME280_temperature;BME280_humidity;BME280_pressure;Samples;Min_cycle;Max_cycle;Signal;HPM_P1;HPM_P2
2023/11/14 00:00:12;;;;;;;38.72;4.82;;;;;;;16.60;59.43;100072.78;4991614;28;20034;-49
2023/11/14 00:02:38;;;;;;;31.00;4.80;;;;;;;16.34;60.14;100071.66;4991352;28;20046;-45
2023/11/14 00:05:03;;;;;;;35.85;4.55;;;;;;;16.54;59.68;100062.38;4991333;28;20039;-44
2023/11/14 00:07:29;;;;;;;28.20;3.92;;;;;;;16.64;59.61;100068.34;4990914;28;20074;-46
2023/11/14 00:09:54;;;;;;;35.88;4.53;;;;;;;16.22;60.67;100071.00;4991497;28;20061;-47
2023/11/14 00:12:20;;;;;;;36.28;4.25;;;;;;;16.19;60.90;100075.47;4989888;28;20046;-47
2023/11/14 00:14:46;;;;;;;33.35;4.53;;;;;;;16.36;60.74;100072.47;4990595;28;20125;-47
2023/11/14 00:17:12;;;;;;;39.45;5.25;;;;;;;16.59;59.72;100093.84;4973539;28;20129;-46
2023/11/14 00:19:39;;;;;;;35.88;4.38;;;;;;;15.99;61.95;100089.06;4990707;28;20555;-46
2023/11/14 00:22:06;;;;;;;39.65;4.38;;;;;;;15.93;61.87;100104.09;4991130;28;20382;-46
2023/11/14 00:24:32;;;;;;;32.10;4.60;;;;;;;16.18;61.21;100106.19;4990491;28;20038;-49
2023/11/14 00:26:57;;;;;;;39.78;4.85;;;;;;;16.31;61.01;100098.03;4990344;28;20038;-49
2023/11/14 00:29:22;;;;;;;28.70;4.53;;;;;;;16.37;59.93;100113.66;4990382;28;20406;-48
2023/11/14 00:31:48;;;;;;;33.83;4.25;;;;;;;16.03;61.34;100100.41;4990573;28;20049;-46
2023/11/14 00:34:14;;;;;;;32.63;4.95;;;;;;;15.94;61.30;100104.06;4990701;28;20038;-47
2023/11/14 00:36:41;;;;;;;32.95;4.55;;;;;;;16.16;61.19;100105.34;4990328;28;20038;-45
2023/11/14 00:39:07;;;;;;;34.05;4.65;;;;;;;15.89;62.25;100116.44;4990741;28;20038;-49
2023/11/14 00:41:32;;;;;;;36.22;4.10;;;;;;;15.88;61.70;100098.94;4972540;28;20497;-47
2023/11/14 00:43:57;;;;;;;36.95;4.47;;;;;;;16.07;61.30;100113.44;4990598;28;20169;-48
2023/11/14 00:46:23;;;;;;;32.42;4.00;;;;;;;16.16;61.00;100107.97;4990848;28;20096;-45
2023/11/14 00:48:48;;;;;;;32.55;4.32;;;;;;;16.24;60.92;100102.53;4990129;28;20158;-45
2023/11/14 00:51:13;;;;;;;29.83;4.00;;;;;;;16.25;60.65;100112.16;4990923;28;20502;-44
2023/11/14 00:53:39;;;;;;;33.55;3.90;;;;;;;15.67;61.30;100109.91;4990134;28;20515;-46
2023/11/14 00:56:04;;;;;;;33.20;4.35;;;;;;;15.85;61.42;100099.00;4972836;28;20052;-48
2023/11/14 00:58:30;;;;;;;33.13;4.32;;;;;;;15.99;61.13;100106.59;4989714;28;20044;-45
2023/11/14 01:00:55;;;;;;;27.17;4.05;;;;;;;16.17;60.74;100122.84;4990605;28;20038;-45
2023/11/14 01:03:24;;;;;;;29.98;4.32;;;;;;;15.93;61.62;100109.34;4990426;28;20042;-50
2023/11/14 01:05:52;;;;;;;27.08;4.07;;;;;;;16.38;60.72;100118.91;4990058;28;20050;-46
2023/11/14 01:08:17;;;;;;;34.28;4.07;;;;;;;16.06;61.36;100118.72;4990407;28;20468;-48
2023/11/14 01:10:42;;;;;;;26.45;3.85;;;;;;;16.23;60.80;100108.69;4989941;28;20061;-45
2023/11/14 01:13:08;;;;;;;25.42;4.03;;;;;;;16.16;61.60;100115.00;4991145;28;20058;-45
2023/11/14 01:15:33;;;;;;;33.13;4.13;;;;;;;16.11;61.60;100124.75;4990416;28;20038;-46
2023/11/14 01:17:58;;;;;;;30.77;4.50;;;;;;;16.42;59.94;100135.47;4990301;28;20038;-45
2023/11/14 01:20:24;;;;;;;26.23;3.83;;;;;;;16.13;60.90;100126.44;4990614;28;20035;-49
2023/11/14 01:22:49;;;;;;;28.80;3.95;;;;;;;16.42;59.80;100143.34;4989879;28;20068;-51
2023/11/14 01:25:15;;;;;;;33.25;4.13;;;;;;;16.31;60.35;100134.84;4990024;28;20035;-46
2023/11/14 01:27:40;;;;;;;27.95;3.85;;;;;;;16.31;60.34;100140.97;4989713;28;20575;-46
2023/11/14 01:30:07;;;;;;;32.10;4.68;;;;;;;16.38;59.91;100131.19;4990580;28;20065;-47
2023/11/14 01:32:33;;;;;;;26.95;3.90;;;;;;;16.23;59.59;100140.25;4990153;28;20121;-45
2023/11/14 01:34:58;;;;;;;34.00;4.10;;;;;;;16.47;59.91;100139.72;4990440;28;20185;-49
2023/11/14 01:37:23;;;;;;;27.90;4.13;;;;;;;16.50;59.59;100146.69;4990274;28;20451;-46
2023/11/14 01:39:48;;;;;;;27.70;4.32;;;;;;;16.15;60.34;100143.06;4991650;28;20510;-45
2023/11/14 01:42:15;;;;;;;35.95;4.60;;;;;;;16.29;60.39;100158.53;4994412;28;20042;-49
2023/11/14 01:44:40;;;;;;;34.92;4.30;;;;;;;16.42;59.83;100146.00;4993462;28;20034;-49
2023/11/14 01:47:05;;;;;;;27.80;4.07;;;;;;;16.41;60.24;100150.38;4994114;28;20042;-46
2023/11/14 01:49:31;;;;;;;33.55;4.38;;;;;;;16.27;60.41;100148.97;4993833;28;20057;-46
2023/11/14 01:51:57;;;;;;;29.40;4.63;;;;;;;16.54;59.95;100164.13;4994847;28;20513;-47
2023/11/14 01:54:23;;;;;;;30.02;4.22;;;;;;;16.39;60.67;100183.78;4993921;28;20089;-48
2023/11/14 01:56:50;;;;;;;30.52;4.63;;;;;;;16.50;60.29;100191.44;4993512;28;20378;-46
2023/11/14 01:59:16;;;;;;;33.72;4.60;;;;;;;15.83;61.97;100216.44;4976492;28;20161;-48
2023/11/14 02:01:43;;;;;;;29.45;4.47;;;;;;;15.95;62.27;100186.44;4993315;28;20089;-47
2023/11/14 02:04:13;;;;;;;37.70;5.05;;;;;;;16.24;61.68;100206.00;4993760;28;20041;-46
2023/11/14 02:06:38;;;;;;;38.10;5.15;;;;;;;16.04;62.04;100189.72;4993622;28;20121;-44
2023/11/14 02:09:07;;;;;;;31.70;4.43;;;;;;;16.16;61.77;100189.50;4994203;28;20022;-45
2023/11/14 02:11:35;;;;;;;36.45;4.30;;;;;;;16.19;61.64;100175.41;4993515;28;20448;-46
2023/11/14 02:14:01;;;;;;;35.17;4.53;;;;;;;16.02;61.85;100188.91;4994100;28;20386;-44
2023/11/14 02:16:27;;;;;;;32.53;4.22;;;;;;;16.27;61.27;100193.69;4994242;28;20065;-47
2023/11/14 02:18:53;;;;;;;30.83;4.28;;;;;;;16.17;61.92;100196.47;4994030;28;20042;-44
2023/11/14 02:21:21;;;;;;;34.40;4.40;;;;;;;16.38;60.86;100189.94;4993824;28;20042;-44
2023/11/14 02:23:50;;;;;;;35.38;4.50;;;;;;;16.34;61.02;100203.19;4993649;28;20065;-46
2023/11/14 02:26:16;;;;;;;28.20;3.83;;;;;;;16.33;61.22;100202.31;4994241;28;20386;-46
2023/11/14 02:28:41;;;;;;;29.88;4.55;;;;;;;16.45;61.15;100191.53;4994291;28;20034;-43
2023/11/14 02:31:06;;;;;;;38.28;4.55;;;;;;;16.56;60.51;100207.09;4994146;28;20030;-44
2023/11/14 02:33:33;;;;;;;35.70;4.75;;;;;;;16.53;60.14;100212.41;4993578;28;20121;-46
2023/11/14 02:35:59;;;;;;;33.58;4.53;;;;;;;16.55;60.43;100214.09;4994284;28;20054;-46
2023/11/14 02:38:24;;;;;;;31.63;4.30;;;;;;;16.07;62.14;100205.47;4993494;28;20034;-45
2023/11/14 02:40:51;;;;;;;34.35;4.57;;;;;;;16.12;61.75;100214.13;4992677;28;20169;-45
2023/11/14 02:43:16;;;;;;;33.88;4.53;;;;;;;16.47;61.44;100223.91;4992840;28;20045;-46
2023/11/14 02:45:43;;;;;;;32.40;4.25;;;;;;;16.27;61.98;100209.47;4992387;28;20038;-46
2023/11/14 02:48:08;;;;;;;33.65;5.10;;;;;;;16.19;61.80;100239.41;4992857;28;20039;-44
2023/11/14 02:50:48;;;;;;;35.90;4.53;;;;;;;16.22;61.54;100212.19;4991467;28;20034;-45
2023/11/14 02:53:13;;;;;;;38.65;4.63;;;;;;;16.33;61.64;100215.47;4993140;28;20389;-45
2023/11/14 02:55:43;;;;;;;35.22;4.55;;;;;;;16.33;62.12;100233.88;4992342;28;20133;-46
2023/11/14 02:58:09;;;;;;;32.70;4.50;;;;;;;16.26;62.02;100211.22;4992765;28;20088;-46
2023/11/14 03:00:34;;;;;;;34.25;5.22;;;;;;;16.29;61.81;100245.34;4992397;28;20117;-46
2023/11/14 03:03:00;;;;;;;32.92;5.18;;;;;;;16.01;62.75;100228.38;4992805;28;20122;-45
2023/11/14 03:05:26;;;;;;;27.02;4.07;;;;;;;16.47;61.08;100242.34;5016816;23;20125;-44
2023/11/14 03:07:51;;;;;;;30.63;4.50;;;;;;;16.43;61.96;100247.69;5011194;28;20030;-44
2023/11/14 03:10:17;;;;;;;34.75;4.30;;;;;;;16.36;62.52;100235.56;5011708;28;20088;-44
2023/11/14 03:12:43;;;;;;;31.80;5.38;;;;;;;16.26;61.52;100244.56;5011350;28;20093;-43
2023/11/14 03:15:09;;;;;;;33.20;4.60;;;;;;;16.53;61.93;100259.75;5011524;28;20044;-46
2023/11/14 03:17:34;;;;;;;33.58;4.78;;;;;;;16.28;62.16;100253.28;5011124;28;20038;-44
2023/11/14 03:20:00;;;;;;;28.70;4.40;;;;;;;16.17;62.76;100241.19;5011622;28;20130;-43
2023/11/14 03:22:25;;;;;;;37.35;4.95;;;;;;;16.51;60.97;100236.13;5011921;28;20125;-42
2023/11/14 03:24:51;;;;;;;32.03;4.68;;;;;;;16.07;62.40;100244.03;5010950;28;20112;-45
2023/11/14 03:27:16;;;;;;;32.47;4.20;;;;;;;16.78;60.70;100232.06;5011514;28;20141;-46
2023/11/14 03:29:42;;;;;;;36.33;4.72;;;;;;;16.23;62.46;100242.84;5011096;28;20034;-43
2023/11/14 03:32:07;;;;;;;37.05;4.72;;;;;;;16.44;61.83;100252.06;5011455;28;20143;-43
2023/11/14 03:34:33;;;;;;;31.50;4.38;;;;;;;16.17;62.58;100250.84;5010525;28;20484;-45
2023/11/14 03:36:58;;;;;;;34.67;4.53;;;;;;;16.25;62.29;100256.81;5011021;28;20046;-44
2023/11/14 03:39:23;;;;;;;36.30;4.90;;;;;;;16.48;62.02;100257.22;5011899;28;20167;-44
2023/11/14 03:41:49;;;;;;;34.67;4.70;;;;;;;16.28;62.09;100245.41;5012044;28;20060;-43
2023/11/14 03:44:14;;;;;;;34.20;4.80;;;;;;;16.11;63.02;100258.84;5011734;28;20069;-42
2023/11/14 03:46:40;;;;;;;32.05;5.03;;;;;;;16.17;62.86;100264.84;5011188;28;20034;-44
2023/11/14 03:49:05;;;;;;;37.88;5.07;;;;;;;16.43;61.81;100279.28;5010968;28;20037;-44
2023/11/14 03:51:30;;;;;;;30.48;4.70;;;;;;;16.63;60.85;100269.25;5010370;28;20056;-45
2023/11/14 03:53:56;;;;;;;35.42;4.60;;;;;;;16.15;63.03;100261.41;5010826;28;20037;-44
2023/11/14 03:56:21;;;;;;;37.42;4.80;;;;;;;15.71;63.96;100264.84;5011050;28;20152;-45
2023/11/14 03:58:49;;;;;;;38.90;4.88;;;;;;;16.00;63.79;100259.06;5010212;28;20046;-42
2023/11/14 04:01:14;;;;;;;30.27;4.53;;;;;;;15.87;64.11;100268.06;5010738;28;20485;-43
2023/11/14 04:03:39;;;;;;;34.88;4.93;;;;;;;15.78;64.07;100249.84;5010377;28;20044;-46
2023/11/14 04:06:08;;;;;;;31.83;4.20;;;;;;;15.83;63.88;100285.66;5010450;28;20457;-43
2023/11/14 04:08:33;;;;;;;37.38;5.35;;;;;;;16.13;62.88;100270.22;5010254;28;20029;-45
2023/11/14 04:10:59;;;;;;;31.88;4.60;;;;;;;16.31;62.89;100267.22;5010938;28;20104;-44
2023/11/14 04:13:24;;;;;;;36.05;4.72;;;;;;;16.06;63.10;100251.06;5010716;28;20066;-47
2023/11/14 04:15:49;;;;;;;33.70;4.70;;;;;;;16.13;63.33;100268.47;5010157;28;20042;-44
2023/11/14 04:18:15;;;;;;;33.53;4.20;;;;;;;16.30;63.18;100272.50;5010386;28;20044;-44
2023/11/14 04:20:40;;;;;;;39.03;5.25;;;;;;;16.17;63.20;100278.00;5009942;28;20519;-46
2023/11/14 04:23:06;;;;;;;38.63;4.82;;;;;;;16.13;63.05;100265.81;5010427;28;20034;-43
2023/11/14 04:25:31;;;;;;;37.42;4.50;;;;;;;16.31;62.97;100264.59;5009863;28;20121;-46
2023/11/14 04:27:56;;;;;;;41.67;4.75;;;;;;;16.01;63.59;100263.44;5010606;28;20293;-45
2023/11/14 04:30:21;;;;;;;41.42;4.85;;;;;;;16.24;62.98;100268.25;5010502;28;20054;-44
2023/11/14 04:32:47;;;;;;;35.13;4.40;;;;;;;16.50;62.38;100267.72;5009982;28;20045;-46
2023/11/14 04:35:12;;;;;;;32.65;4.95;;;;;;;16.26;63.14;100265.59;5009874;28;20571;-47
2023/11/14 04:37:37;;;;;;;34.42;4.35;;;;;;;16.12;63.35;100271.97;5009600;28;20040;-49
2023/11/14 04:40:05;;;;;;;33.83;5.25;;;;;;;15.96;63.57;100275.78;5010349;28;20100;-47
2023/11/14 04:42:30;;;;;;;32.85;4.40;;;;;;;16.02;63.51;100259.91;5009528;28;20040;-47
2023/11/14 04:44:56;;;;;;;35.65;4.85;;;;;;;16.30;62.62;100275.16;5010310;28;20117;-42
2023/11/14 04:47:21;;;;;;;29.55;4.43;;;;;;;15.92;64.31;100273.25;5010027;28;20030;-43
2023/11/14 04:49:46;;;;;;;33.25;4.75;;;;;;;16.02;63.93;100270.41;5009524;28;20045;-44
2023/11/14 04:52:12;;;;;;;32.88;4.18;;;;;;;16.41;63.02;100263.50;5010272;28;20030;-44
2023/11/14 04:54:37;;;;;;;35.92;4.75;;;;;;;15.89;64.36;100279.41;5009300;28;20137;-46
2023/11/14 04:57:02;;;;;;;32.03;4.97;;;;;;;15.90;64.28;100281.16;5009859;28;20091;-45
2023/11/14 04:59:28;;;;;;;39.10;5.00;;;;;;;16.05;63.49;100290.50;5009322;28;20038;-44
2023/11/14 05:01:53;;;;;;;32.70;4.25;;;;;;;16.10;63.39;100293.97;5009990;28;20393;-45
2023/11/14 05:04:18;;;;;;;32.47;3.85;;;;;;;16.49;62.58;100294.94;5009680;28;20038;-43
2023/11/14 05:06:44;;;;;;;32.72;4.18;;;;;;;16.55;62.00;100303.56;5009539;28;20053;-43
2023/11/14 05:09:09;;;;;;;35.45;4.50;;;;;;;16.34;62.46;100296.13;5009866;28;20046;-45
2023/11/14 05:11:38;;;;;;;31.17;4.55;;;;;;;16.23;62.72;100283.16;5010874;28;20041;-41
2023/11/14 05:14:05;;;;;;;37.05;4.80;;;;;;;16.39;62.77;100282.88;5011991;28;20041;-41
2023/11/14 05:16:37;;;;;;;32.47;4.38;;;;;;;16.35;62.70;100289.06;5012941;28;20042;-41
2023/11/14 05:19:02;;;;;;;32.65;4.40;;;;;;;16.09;63.30;100281.69;5012235;28;20049;-43
2023/11/14 05:21:28;;;;;;;31.98;4.70;;;;;;;16.36;61.84;100288.19;5009831;28;20041;-47
2023/11/14 05:23:53;;;;;;;34.40;4.35;;;;;;;16.27;62.99;100285.75;5009501;28;20065;-47
2023/11/14 05:26:18;;;;;;;35.55;4.78;;;;;;;16.23;62.19;100305.97;5010017;28;20117;-46
2023/11/14 05:28:44;;;;;;;33.97;4.88;;;;;;;16.28;62.36;100290.13;5009123;28;20064;-49
2023/11/14 05:31:09;;;;;;;30.25;4.38;;;;;;;16.56;61.61;100278.13;5009608;28;20034;-42
2023/11/14 05:33:34;;;;;;;31.73;4.13;;;;;;;16.32;62.31;100297.03;5009065;28;20065;-43
2023/11/14 05:36:00;;;;;;;30.63;4.30;;;;;;;16.33;62.17;100302.28;5009404;28;20049;-41
2023/11/14 05:38:27;;;;;;;33.63;4.15;;;;;;;16.29;62.48;100300.56;5009424;28;20479;-41
2023/11/14 05:40:52;;;;;;;36.20;4.53;;;;;;;16.26;62.26;100299.78;5009785;28;20045;-41
2023/11/14 05:43:18;;;;;;;24.88;4.13;;;;;;;16.63;61.17;100301.69;5009814;28;20037;-41
2023/11/14 05:45:45;;;;;;;29.98;4.60;;;;;;;16.51;61.95;100299.28;5009546;28;20061;-41
2023/11/14 05:48:11;;;;;;;28.05;4.43;;;;;;;16.10;62.53;100286.91;5009301;28;20050;-43
2023/11/14 05:50:36;;;;;;;37.25;4.95;;;;;;;16.27;62.53;100309.41;5009358;28;20132;-42
2023/11/14 05:53:02;;;;;;;33.42;4.45;;;;;;;16.06;62.88;100306.28;5009364;28;20128;-42
2023/11/14 05:55:27;;;;;;;38.25;4.72;;;;;;;16.31;62.41;100317.22;5008882;28;20041;-53
2023/11/14 05:57:52;;;;;;;33.72;4.47;;;;;;;16.26;62.64;100312.94;5009409;28;20042;-45
2023/11/14 06:00:18;;;;;;;35.20;4.35;;;;;;;16.49;61.66;100326.50;5009537;28;20045;-47
2023/11/14 06:02:46;;;;;;;34.90;4.63;;;;;;;16.42;62.15;100323.13;5008626;28;20105;-43
2023/11/14 06:05:12;;;;;;;32.58;4.80;;;;;;;16.55;61.43;100334.28;5009069;28;20459;-41
2023/11/14 06:07:38;;;;;;;38.30;4.90;;;;;;;16.36;62.59;100343.41;5008438;28;20089;-42
2023/11/14 06:10:05;;;;;;;26.23;4.20;;;;;;;16.76;61.15;100354.09;5009201;28;20045;-44
2023/11/14 06:12:31;;;;;;;30.48;4.38;;;;;;;16.30;62.18;100351.44;5008732;28;20034;-44
2023/11/14 06:14:57;;;;;;;35.28;4.72;;;;;;;16.22;62.44;100352.44;5009090;28;20049;-45
2023/11/14 06:17:22;;;;;;;29.08;4.50;;;;;;;16.46;62.07;100347.63;5009014;28;20040;-41
2023/11/14 06:19:47;;;;;;;33.33;4.30;;;;;;;16.65;61.17;100354.28;5008806;28;20057;-44
2023/11/14 06:22:13;;;;;;;33.30;4.68;;;;;;;15.87;62.87;100352.16;5009011;28;20109;-43
2023/11/14 06:24:38;;;;;;;32.17;4.40;;;;;;;16.46;62.34;100345.88;5008627;28;20258;-43
2023/11/14 06:27:03;;;;;;;36.20;4.60;;;;;;;16.33;62.39;100344.38;5011441;28;20034;-45
2023/11/14 06:29:29;;;;;;;33.45;4.10;;;;;;;16.36;62.13;100331.13;5012209;28;20145;-43
2023/11/14 06:31:54;;;;;;;33.05;3.95;;;;;;;16.73;61.16;100331.31;5012609;28;20038;-40
2023/11/14 06:34:21;;;;;;;36.47;4.70;;;;;;;16.32;62.73;100347.03;5012798;28;20042;-40
2023/11/14 06:36:47;;;;;;;39.88;5.13;;;;;;;16.19;63.32;100347.25;5011992;28;20034;-43
2023/11/14 06:39:12;;;;;;;32.40;4.88;;;;;;;16.40;62.19;100340.72;5012513;28;20553;-44
2023/11/14 06:41:37;;;;;;;35.67;4.45;;;;;;;16.28;62.43;100335.69;5011935;28;20037;-43
2023/11/14 06:44:03;;;;;;;43.40;4.97;;;;;;;16.26;62.70;100329.59;5012322;28;20122;-42
2023/11/14 06:46:28;;;;;;;38.72;5.80;;;;;;;16.63;61.96;100341.19;5011935;28;20124;-41
2023/11/14 06:48:53;;;;;;;32.70;4.20;;;;;;;16.61;61.80;100334.19;5012126;28;20092;-46
2023/11/14 06:51:19;;;;;;;41.95;5.35;;;;;;;16.24;62.64;100344.53;5012042;28;20552;-41
2023/11/14 06:53:47;;;;;;;44.58;4.90;;;;;;;16.20;63.82;100348.97;5011515;28;20038;-43
2023/11/14 06:56:13;;;;;;;33.38;5.07;;;;;;;16.29;62.88;100354.94;5011771;28;20065;-45
2023/11/14 06:58:40;;;;;;;35.88;5.05;;;;;;;16.19;63.59;100364.78;5011287;28;20038;-43
2023/11/14 07:01:07;;;;;;;28.23;4.43;;;;;;;16.49;62.58;100365.97;5011821;28;20052;-44
2023/11/14 07:03:32;;;;;;;36.95;4.93;;;;;;;16.15;63.47;100363.97;5011380;28;20073;-42
2023/11/14 07:05:58;;;;;;;28.58;4.20;;;;;;;16.80;61.59;100361.91;5011677;28;20061;-42
2023/11/14 07:08:24;;;;;;;36.83;4.65;;;;;;;16.49;62.42;100366.84;5011858;28;20044;-43
2023/11/14 07:10:49;;;;;;;36.60;4.85;;;;;;;16.60;62.14;100357.00;5011236;28;20042;-40
2023/11/14 07:13:14;;;;;;;36.47;4.40;;;;;;;16.61;62.09;100368.41;5011716;28;20045;-43
2023/11/14 07:15:40;;;;;;;31.30;4.40;;;;;;;16.65;61.57;100362.19;5010915;28;20038;-42
2023/11/14 07:18:08;;;;;;;33.40;4.72;;;;;;;16.47;62.39;100383.56;5011415;28;20120;-45
2023/11/14 07:20:33;;;;;;;35.88;4.68;;;;;;;16.39;62.50;100364.44;5010990;28;20088;-43
2023/11/14 07:22:59;;;;;;;29.55;4.75;;;;;;;16.28;62.77;100369.03;5011586;28;20037;-44
2023/11/14 07:25:24;;;;;;;34.05;4.40;;;;;;;16.64;62.14;100376.28;5011338;28;20129;-43
2023/11/14 07:27:51;;;;;;;35.13;4.43;;;;;;;16.38;62.77;100371.44;5011272;28;20358;-46
2023/11/14 07:30:17;;;;;;;37.40;4.70;;;;;;;16.65;61.87;100372.72;5011481;28;20109;-46
2023/11/14 07:32:42;;;;;;;27.65;4.35;;;;;;;16.34;62.61;100376.81;5011091;28;20124;-43
2023/11/14 07:35:10;;;;;;;33.75;4.97;;;;;;;16.52;62.25;100366.81;5011110;28;20107;-43
2023/11/14 07:37:35;;;;;;;34.75;4.47;;;;;;;16.72;61.28;100373.47;5010147;28;20144;-45
2023/11/14 07:40:01;;;;;;;35.05;4.30;;;;;;;16.42;63.13;100359.97;5011289;28;20129;-41
2023/11/14 07:42:26;;;;;;;30.70;4.72;;;;;;;16.87;61.90;100358.25;5011638;28;20034;-43
2023/11/14 07:44:51;;;;;;;36.85;4.60;;;;;;;16.74;61.93;100359.38;5010992;28;20408;-41
2023/11/14 07:47:17;;;;;;;32.90;4.50;;;;;;;16.56;62.41;100372.88;5011398;28;20034;-40
2023/11/14 07:49:42;;;;;;;34.78;4.75;;;;;;;16.00;65.94;100374.75;5010439;28;20084;-38
2023/11/14 07:52:07;;;;;;;32.22;4.53;;;;;;;16.76;65.09;100376.03;5011110;28;20337;-42
2023/11/14 07:54:33;;;;;;;32.92;4.57;;;;;;;16.39;66.14;100375.81;5010318;28;20030;-43
2023/11/14 07:57:02;;;;;;;35.15;4.93;;;;;;;16.33;66.55;100375.94;5011005;28;20037;-42
2023/11/14 07:59:27;;;;;;;28.77;4.15;;;;;;;16.48;65.86;100361.59;5010749;28;20472;-51
2023/11/14 08:01:53;;;;;;;42.42;4.47;;;;;;;15.97;65.92;100368.69;5010801;28;20120;-43
2023/11/14 08:04:18;;;;;;;29.60;4.53;;;;;;;16.31;65.80;100363.69;5010460;28;20112;-41
2023/11/14 08:06:44;;;;;;;32.22;4.70;;;;;;;16.53;64.89;100362.38;5010257;28;20117;-39
2023/11/14 08:09:09;;;;;;;34.95;4.85;;;;;;;16.47;64.24;100359.88;5010634;28;20070;-43
2023/11/14 08:11:39;;;;;;;29.98;4.30;;;;;;;16.38;64.31;100357.44;5010306;28;20404;-41
2023/11/14 08:14:05;;;;;;;32.22;4.43;;;;;;;16.36;63.96;100346.91;5010645;28;20411;-44
2023/11/14 08:16:30;;;;;;;29.92;4.03;;;;;;;16.50;63.29;100350.16;5010174;28;20042;-41
2023/11/14 08:18:56;;;;;;;31.70;4.53;;;;;;;16.61;62.84;100350.00;5010597;28;20404;-44
2023/11/14 08:21:21;;;;;;;36.38;4.78;;;;;;;16.49;63.17;100356.31;5010759;28;20034;-41
2023/11/14 08:23:47;;;;;;;40.92;5.00;;;;;;;16.63;62.28;100364.00;5009579;28;20129;-42
2023/11/14 08:26:12;;;;;;;40.17;4.35;;;;;;;16.48;62.95;100362.47;5010564;28;20113;-43
2023/11/14 08:28:39;;;;;;;31.85;4.32;;;;;;;16.53;62.73;100359.75;5009984;28;20087;-41
2023/11/14 08:31:05;;;;;;;32.92;4.13;;;;;;;16.67;62.50;100352.50;5010781;28;20049;-42
2023/11/14 08:33:30;;;;;;;26.95;4.25;;;;;;;16.38;62.49;100357.44;5009996;28;20038;-45
2023/11/14 08:35:55;;;;;;;33.97;4.05;;;;;;;16.83;62.03;100355.72;5010706;28;20038;-40
2023/11/14 08:38:22;;;;;;;38.00;4.28;;;;;;;16.48;62.73;100366.88;5010291;28;20116;-41
2023/11/14 08:40:47;;;;;;;39.70;4.70;;;;;;;16.38;62.68;100363.56;5010172;28;24859;-37
2023/11/14 08:43:13;;;;;;;32.67;4.82;;;;;;;16.44;62.79;100360.81;5010283;28;20037;-40
2023/11/14 08:45:39;;;;;;;35.97;4.22;;;;;;;16.40;63.15;100360.91;5009704;28;20177;-44
2023/11/14 08:48:04;;;;;;;37.72;4.65;;;;;;;16.50;62.79;100360.69;5009955;28;20034;-41
2023/11/14 08:50:30;;;;;;;35.67;4.40;;;;;;;16.58;62.41;100360.56;5009295;28;20120;-43
2023/11/14 08:52:55;;;;;;;33.47;4.38;;;;;;;16.52;62.89;100371.19;5010307;28;20037;-45
2023/11/14 08:55:21;;;;;;;23.27;3.55;;;;;;;16.93;61.55;100362.50;5008886;28;20042;-40
2023/11/14 08:57:46;;;;;;;32.70;4.07;;;;;;;16.87;61.53;100358.25;5010066;28;20365;-43
2023/11/14 09:00:13;;;;;;;32.30;4.45;;;;;;;17.41;59.46;100355.31;5011053;28;20045;-40
2023/11/14 09:02:41;;;;;;;31.10;4.43;;;;;;;17.04;60.40;100364.03;5009038;28;20431;-41
2023/11/14 09:05:10;;;;;;;30.45;4.35;;;;;;;16.65;61.20;100367.44;5009962;28;20562;-40
2023/11/14 09:07:36;;;;;;;29.83;4.20;;;;;;;17.35;59.08;100366.00;5009200;28;20477;-39
2023/11/14 09:10:04;;;;;;;28.70;3.72;;;;;;;17.45;58.81;100368.38;5010867;28;20080;-44
2023/11/14 09:12:31;;;;;;;34.75;4.80;;;;;;;17.51;58.65;100371.78;5010041;28;20041;-42
2023/11/14 09:14:57;;;;;;;28.73;4.13;;;;;;;17.56;58.26;100364.66;4991275;28;20088;-42
2023/11/14 09:17:23;;;;;;;30.10;3.97;;;;;;;17.14;59.87;100366.47;5009369;28;20034;-41
2023/11/14 09:19:51;;;;;;;36.28;4.53;;;;;;;17.43;58.70;100372.84;5008510;28;20034;-45
2023/11/14 09:22:16;;;;;;;31.75;3.72;;;;;;;17.39;59.42;100375.56;5008816;28;20460;-43
2023/11/14 09:24:41;;;;;;;32.95;3.90;;;;;;;17.23;60.12;100361.88;5008964;28;20033;-42
2023/11/14 09:27:08;;;;;;;33.22;4.53;;;;;;;17.01;60.50;100376.41;5009360;28;20087;-36
2023/11/14 09:29:33;;;;;;;27.10;3.97;;;;;;;17.77;58.60;100380.84;5008583;28;20532;-40
2023/11/14 09:31:59;;;;;;;33.80;4.80;;;;;;;17.26;58.91;100371.47;4991601;28;20056;-39
2023/11/14 09:34:24;;;;;;;39.70;4.70;;;;;;;17.82;57.50;100378.97;5009239;28;20045;-42
2023/11/14 09:36:50;;;;;;;30.38;4.65;;;;;;;17.63;58.13;100380.28;5008759;28;20038;-42
2023/11/14 09:39:17;;;;;;;28.00;3.75;;;;;;;17.41;58.66;100387.81;5008798;28;20624;-39
2023/11/14 09:41:43;;;;;;;23.52;3.90;;;;;;;17.76;57.97;100384.38;5008693;28;20513;-42
2023/11/14 09:44:09;;;;;;;30.13;3.90;;;;;;;17.32;58.64;100373.97;5009090;28;20065;-39
2023/11/14 09:46:37;;;;;;;26.10;4.03;;;;;;;17.66;58.37;100377.59;5008538;28;20033;-42
2023/11/14 09:49:04;;;;;;;28.52;3.95;;;;;;;17.65;57.57;100372.34;5009518;28;20447;-42
2023/11/14 09:51:31;;;;;;;33.97;4.45;;;;;;;17.56;57.91;100381.34;5008823;28;20121;-39
2023/11/14 09:53:56;;;;;;;30.80;4.20;;;;;;;17.16;59.15;100391.00;5008734;28;20111;-43
2023/11/14 09:56:22;;;;;;;35.53;4.65;;;;;;;16.90;60.74;100381.88;5008924;28;20492;-41
2023/11/14 09:58:49;;;;;;;28.27;4.28;;;;;;;17.01;60.20;100381.66;5008500;28;20152;-38
2023/11/14 10:01:14;;;;;;;29.52;3.95;;;;;;;17.22;59.44;100375.94;5012028;28;20444;-39
2023/11/14 10:03:42;;;;;;;29.95;4.18;;;;;;;16.81;59.81;100371.53;5012549;28;20173;-38
2023/11/14 10:06:08;;;;;;;28.70;3.75;;;;;;;17.66;57.58;100371.47;5013145;28;20091;-36
2023/11/14 10:08:34;;;;;;;33.38;4.72;;;;;;;17.19;58.70;100381.28;4994375;28;20041;-40
2023/11/14 10:11:05;;;;;;;24.27;4.15;;;;;;;17.33;58.58;100387.09;5012318;28;20084;-45
2023/11/14 10:13:31;;;;;;;39.65;4.63;;;;;;;16.95;59.58;100377.41;5012336;28;20048;-39
2023/11/14 10:16:18;;;;;;;34.65;4.57;;;;;;;17.12;59.57;100384.06;5012257;28;20045;-40
2023/11/14 10:18:48;;;;;;;31.10;4.50;;;;;;;17.23;58.52;100376.81;5011765;28;20508;-45
2023/11/14 10:21:23;;;;;;;29.67;4.25;;;;;;;17.38;58.52;100373.84;5013656;28;20048;-42
2023/11/14 10:23:49;;;;;;;24.40;3.83;;;;;;;17.49;58.12;100373.59;5013699;28;20030;-43
2023/11/14 10:26:14;;;;;;;33.90;4.35;;;;;;;17.37;59.05;100375.59;5013462;28;20499;-40
2023/11/14 10:28:54;;;;;;;30.63;4.32;;;;;;;17.42;58.58;100372.84;5011659;28;20038;-40
2023/11/14 10:31:34;;;;;;;33.15;4.00;;;;;;;17.78;58.57;100377.31;5012880;28;20036;-45
2023/11/14 10:34:00;;;;;;;29.90;3.80;;;;;;;17.82;57.59;100376.31;4994915;28;20042;-40
2023/11/14 10:36:25;;;;;;;27.48;3.97;;;;;;;18.30;56.31;100367.25;5011639;28;20045;-42
2023/11/14 10:39:03;;;;;;;29.10;4.15;;;;;;;17.86;57.39;100371.88;5011987;28;20038;-43
2023/11/14 10:41:28;;;;;;;33.20;4.20;;;;;;;18.01;56.65;100367.97;5011890;28;20030;-40
2023/11/14 10:43:54;;;;;;;31.55;4.40;;;;;;;17.53;57.46;100364.69;5012415;28;20045;-42
2023/11/14 10:46:19;;;;;;;27.23;4.00;;;;;;;17.96;56.95;100370.72;5013069;28;20393;-39
2023/11/14 10:48:45;;;;;;;32.63;4.28;;;;;;;18.40;55.42;100369.59;5012774;28;20048;-39
2023/11/14 10:51:11;;;;;;;30.00;3.92;;;;;;;17.86;56.74;100369.22;5013073;28;20097;-44
2023/11/14 10:53:39;;;;;;;29.05;4.35;;;;;;;17.87;57.77;100368.28;5012843;28;20060;-42
2023/11/14 10:56:06;;;;;;;32.03;4.43;;;;;;;17.76;58.18;100347.47;5013632;28;20570;-43
2023/11/14 10:58:34;;;;;;;32.05;4.53;;;;;;;18.04;57.33;100346.78;5012783;28;20042;-39
2023/11/14 11:01:00;;;;;;;31.08;4.80;;;;;;;18.07;57.39;100341.44;5013761;28;20038;-39
2023/11/14 11:03:26;;;;;;;29.20;4.63;;;;;;;17.92;58.09;100344.47;5013411;28;20042;-41
2023/11/14 11:05:51;;;;;;;27.27;4.03;;;;;;;18.52;57.16;100336.72;5011769;28;20037;-40
2023/11/14 11:08:17;;;;;;;30.23;3.92;;;;;;;18.40;56.41;100337.06;5012607;28;20060;-41
2023/11/14 11:10:42;;;;;;;32.45;4.70;;;;;;;18.69;55.51;100336.25;5012365;28;20331;-39